createdAt,value
2018-01-05T00:00:01.651Z,9.73
2018-01-05T00:01:01.200Z,9.72
2018-01-05T00:02:00.564Z,9.68
2018-01-05T00:03:00.958Z,9.65
2018-01-05T00:04:01.244Z,9.65
2018-01-05T00:05:00.587Z,9.63
2018-01-05T00:06:01.166Z,9.68
2018-01-05T00:07:00.625Z,9.65
2018-01-05T00:08:01.003Z,9.65
2018-01-05T00:09:01.315Z,9.63
2018-01-05T00:10:00.910Z,9.65
2018-01-05T00:11:00.369Z,9.68
2018-01-05T00:12:00.662Z,9.65
2018-01-05T00:13:01.181Z,9.62
2018-01-05T00:14:00.633Z,9.62
2018-01-05T00:15:00.820Z,9.57
2018-01-05T00:16:01.189Z,9.55
2018-01-05T00:19:06.234Z,9.55
2018-01-05T00:20:00.529Z,9.59
2018-01-05T00:21:01.050Z,9.58
2018-01-05T00:22:00.644Z,9.61
2018-01-05T00:23:00.808Z,9.57
2018-01-05T00:24:01.048Z,9.58
2018-01-05T00:25:01.340Z,9.55
2018-01-05T00:26:00.481Z,9.57
2018-01-05T00:27:00.762Z,9.55
2018-01-05T00:28:00.973Z,9.54
2018-01-05T00:29:01.137Z,9.49
2018-01-05T00:30:00.503Z,9.47
2018-01-05T00:31:00.758Z,9.42
2018-01-05T00:32:01.065Z,9.41
2018-01-05T00:33:00.571Z,9.38
2018-01-05T00:34:00.928Z,9.38
2018-01-05T00:35:01.114Z,9.34
2018-01-05T00:36:01.090Z,9.33
2018-01-05T00:37:01.380Z,9.31
2018-01-05T00:38:00.751Z,9.31
2018-01-05T00:39:01.027Z,9.29
2018-01-05T00:40:01.373Z,9.24
2018-01-05T00:41:00.657Z,9.24
2018-01-05T00:42:01.511Z,9.23
2018-01-05T00:43:01.052Z,9.23
2018-01-05T00:44:01.647Z,9.26
2018-01-05T00:45:01.081Z,9.24
2018-01-05T00:46:00.650Z,9.24
2018-01-05T00:47:01.006Z,9.27
2018-01-05T00:48:01.379Z,9.27
2018-01-05T00:49:00.711Z,9.24
2018-01-05T00:50:01.258Z,9.23
2018-01-05T00:51:00.729Z,9.23
2018-01-05T00:52:01.037Z,9.26
2018-01-05T00:53:01.400Z,9.24
2018-01-05T00:54:00.998Z,9.24
2018-01-05T00:55:01.517Z,9.23
2018-01-05T00:56:00.819Z,9.2
2018-01-05T00:57:01.032Z,9.21
2018-01-05T00:58:01.243Z,9.23
2018-01-05T00:59:00.382Z,9.24
2018-01-05T01:00:01.070Z,9.24
2018-01-05T01:01:01.691Z,9.21
2018-01-05T01:02:01.183Z,9.2
2018-01-05T01:03:01.586Z,9.17
2018-01-05T01:04:00.877Z,9.19
2018-01-05T01:05:01.363Z,9.2
2018-01-05T01:06:01.618Z,9.17
2018-01-05T01:07:01.046Z,9.17
2018-01-05T01:08:01.368Z,9.17
2018-01-05T01:09:01.624Z,9.17
2018-01-05T01:10:00.760Z,9.19
2018-01-05T01:11:01.711Z,9.23
2018-01-05T01:12:00.977Z,9.23
2018-01-05T01:13:01.313Z,9.2
2018-01-05T01:14:01.568Z,9.23
2018-01-05T01:15:01.029Z,9.26
2018-01-05T01:16:01.371Z,9.23
2018-01-05T01:17:01.669Z,9.27
2018-01-05T01:18:00.996Z,9.29
2018-01-05T01:19:01.410Z,9.27
2018-01-05T01:20:00.725Z,9.34
2018-01-05T01:21:01.013Z,9.33
2018-01-05T01:22:01.180Z,9.38
2018-01-05T01:23:01.414Z,9.35
2018-01-05T01:24:01.665Z,9.35
2018-01-05T01:25:01.010Z,9.31
2018-01-05T01:26:01.668Z,9.33
2018-01-05T01:27:00.849Z,9.3
2018-01-05T01:28:00.958Z,9.31
2018-01-05T01:29:01.210Z,9.33
2018-01-05T01:30:01.738Z,9.44
2018-01-05T01:31:01.084Z,9.57
2018-01-05T01:32:01.517Z,9.59
2018-01-05T01:33:00.832Z,9.57
2018-01-05T01:34:01.238Z,9.55
2018-01-05T01:35:01.504Z,9.51
2018-01-05T01:36:00.886Z,9.47
2018-01-05T01:37:01.105Z,9.47
2018-01-05T01:38:01.310Z,9.42
2018-01-05T01:39:01.494Z,9.44
2018-01-05T01:41:24.912Z,9.38
2018-01-05T01:42:01.284Z,9.38
2018-01-05T01:43:00.722Z,9.38
2018-01-05T01:44:01.087Z,9.35
2018-01-05T01:45:01.305Z,9.37
2018-01-05T01:46:01.462Z,9.34
2018-01-05T01:47:00.973Z,9.34
2018-01-05T01:48:01.295Z,9.35
2018-01-05T01:49:00.805Z,9.33
2018-01-05T01:50:01.006Z,9.31
2018-01-05T01:51:01.301Z,9.31
2018-01-05T01:52:01.622Z,9.31
2018-01-05T01:53:00.839Z,9.3
2018-01-05T01:54:01.036Z,9.27
2018-01-05T01:55:01.368Z,9.3
2018-01-05T01:56:00.710Z,9.33
2018-01-05T01:57:01.152Z,9.34
2018-01-05T01:58:00.759Z,9.31
2018-01-05T01:59:01.115Z,9.27
2018-01-05T02:00:01.270Z,9.3
2018-01-05T02:01:01.732Z,9.3
2018-01-05T02:02:01.276Z,9.27
2018-01-05T02:03:01.756Z,9.26
2018-01-05T02:04:01.145Z,9.27
2018-01-05T02:05:01.488Z,9.23
2018-01-05T02:06:00.692Z,9.24
2018-01-05T02:07:00.870Z,9.24
2018-01-05T02:08:01.008Z,9.26
2018-01-05T02:09:01.552Z,9.23
2018-01-05T02:10:01.016Z,9.26
2018-01-05T02:11:01.302Z,9.26
2018-01-05T02:12:01.446Z,9.24
2018-01-05T02:13:00.684Z,9.26
2018-01-05T02:14:01.140Z,9.23
2018-01-05T02:15:01.520Z,9.26
2018-01-05T02:16:00.979Z,9.24
2018-01-05T02:17:01.390Z,9.21
2018-01-05T02:18:00.772Z,9.23
2018-01-05T02:19:00.982Z,9.23
2018-01-05T02:20:01.491Z,9.27
2018-01-05T02:21:00.760Z,9.24
2018-01-05T02:22:01.048Z,9.2
2018-01-05T02:23:01.242Z,9.2
2018-01-05T02:24:01.427Z,9.19
2018-01-05T02:25:01.524Z,9.2
2018-01-05T02:26:00.840Z,9.21
2018-01-05T02:27:01.379Z,9.2
2018-01-05T02:28:01.659Z,9.2
2018-01-05T02:29:00.970Z,9.23
2018-01-05T02:30:01.358Z,9.19
2018-01-05T02:31:00.611Z,9.19
2018-01-05T02:32:00.874Z,9.19
2018-01-05T02:33:01.303Z,9.17
2018-01-05T02:34:01.742Z,9.17
2018-01-05T02:35:02.958Z,9.17
2018-01-05T02:36:01.225Z,9.16
2018-01-05T02:37:01.638Z,9.14
2018-01-05T02:38:01.158Z,9.14
2018-01-05T02:39:01.443Z,9.11
2018-01-05T02:40:02.003Z,9.11
2018-01-05T02:41:01.466Z,9.1
2018-01-05T02:42:01.871Z,9.1
2018-01-05T02:43:01.285Z,9.09
2018-01-05T02:44:01.570Z,9.09
2018-01-05T02:45:01.977Z,9.06
2018-01-05T02:46:01.265Z,9.04
2018-01-05T02:47:01.591Z,9.04
2018-01-05T02:49:24.668Z,9.03
2018-01-05T02:50:01.091Z,9
2018-01-05T02:51:01.541Z,9.02
2018-01-05T02:52:01.687Z,9
2018-01-05T02:53:00.964Z,9
2018-01-05T02:54:01.150Z,8.99
2018-01-05T02:55:01.396Z,8.99
2018-01-05T02:56:01.596Z,8.98
2018-01-05T02:57:00.771Z,8.98
2018-01-05T02:58:00.831Z,8.98
2018-01-05T02:59:01.022Z,8.95
2018-01-05T03:00:01.490Z,8.93
2018-01-05T03:01:01.857Z,8.95
2018-01-05T03:02:01.658Z,8.93
2018-01-05T03:03:01.121Z,8.93
2018-01-05T03:04:01.435Z,8.93
2018-01-05T03:05:00.736Z,8.92
2018-01-05T03:06:01.053Z,8.91
2018-01-05T03:07:01.476Z,8.93
2018-01-05T03:08:00.631Z,8.95
2018-01-05T03:09:00.876Z,8.96
2018-01-05T03:10:01.270Z,8.95
2018-01-05T03:11:00.469Z,8.93
2018-01-05T03:12:02.139Z,8.93
2018-01-05T03:13:00.666Z,8.98
2018-01-05T03:14:00.980Z,8.96
2018-01-05T03:15:01.101Z,8.95
2018-01-05T03:16:01.418Z,8.98
2018-01-05T03:17:00.692Z,8.93
2018-01-05T03:18:01.057Z,8.98
2018-01-05T03:19:02.843Z,8.99
2018-01-05T03:20:01.421Z,8.98
2018-01-05T03:21:00.826Z,8.98
2018-01-05T03:22:01.212Z,8.99
2018-01-05T03:23:01.526Z,9
2018-01-05T03:24:01.179Z,9.02
2018-01-05T03:25:00.508Z,9
2018-01-05T03:26:00.773Z,9
2018-01-05T03:27:01.122Z,9.02
2018-01-05T03:28:01.429Z,9.03
2018-01-05T03:29:00.706Z,9.03
2018-01-05T03:30:01.325Z,9.03
2018-01-05T03:31:00.540Z,9.06
2018-01-05T03:32:00.845Z,9.06
2018-01-05T03:33:00.982Z,9.06
2018-01-05T03:34:00.316Z,9.07
2018-01-05T03:35:00.783Z,9.1
2018-01-05T03:36:00.979Z,9.09
2018-01-05T03:37:00.183Z,9.07
2018-01-05T03:38:00.376Z,9.1
2018-01-05T03:39:00.704Z,9.11
2018-01-05T03:40:01.084Z,9.09
2018-01-05T03:41:00.291Z,9.11
2018-01-05T03:42:00.700Z,9.13
2018-01-05T03:43:01.159Z,9.13
2018-01-05T03:44:00.445Z,9.09
2018-01-05T03:45:00.758Z,9.1
2018-01-05T03:46:00.277Z,9.1
2018-01-05T03:47:00.632Z,9.09
2018-01-05T03:48:01.015Z,9.07
2018-01-05T03:49:00.275Z,9.07
2018-01-05T03:50:00.594Z,9.09
2018-01-05T03:51:01.173Z,9.09
2018-01-05T03:52:00.535Z,9.11
2018-01-05T03:53:00.951Z,9.1
2018-01-05T03:54:00.326Z,9.14
2018-01-05T03:55:00.418Z,9.13
2018-01-05T03:56:00.629Z,9.14
2018-01-05T03:57:01.071Z,9.14
2018-01-05T03:58:00.085Z,9.19
2018-01-05T03:59:00.248Z,9.19
2018-01-05T04:00:00.578Z,9.21
2018-01-05T04:01:00.789Z,9.2
2018-01-05T04:02:01.056Z,9.17
2018-01-05T04:03:00.358Z,9.17
2018-01-05T04:04:00.821Z,9.17
2018-01-05T04:05:01.279Z,9.19
2018-01-05T04:06:02.052Z,9.17
2018-01-05T04:07:01.512Z,9.17
2018-01-05T04:08:00.775Z,9.2
2018-01-05T04:09:00.948Z,9.19
2018-01-05T04:10:01.274Z,9.17
2018-01-05T04:11:01.545Z,9.21
2018-01-05T04:12:00.887Z,9.19
2018-01-05T04:13:01.116Z,9.19
2018-01-05T04:14:01.210Z,9.2
2018-01-05T04:15:01.318Z,9.17
2018-01-05T04:16:01.526Z,9.21
2018-01-05T04:17:00.670Z,9.21
2018-01-05T04:18:01.074Z,9.24
2018-01-05T04:19:01.338Z,9.29
2018-01-05T04:20:02.117Z,9.29
2018-01-05T04:21:01.258Z,9.24
2018-01-05T04:22:01.428Z,9.24
2018-01-05T04:23:01.788Z,9.23
2018-01-05T04:24:01.132Z,9.23
2018-01-05T04:25:01.404Z,9.21
2018-01-05T04:26:01.696Z,9.23
2018-01-05T04:27:00.880Z,9.24
2018-01-05T04:28:01.143Z,9.23
2018-01-05T04:29:02.123Z,9.24
2018-01-05T04:30:01.387Z,9.24
2018-01-05T04:31:01.664Z,9.21
2018-01-05T04:32:00.933Z,9.23
2018-01-05T04:33:01.247Z,9.21
2018-01-05T04:34:01.644Z,9.2
2018-01-05T04:35:00.989Z,9.2
2018-01-05T04:36:01.221Z,9.19
2018-01-05T04:37:01.425Z,9.2
2018-01-05T04:38:00.786Z,9.17
2018-01-05T04:39:01.219Z,9.19
2018-01-05T04:40:00.702Z,9.16
2018-01-05T04:41:01.019Z,9.16
2018-01-05T04:42:01.265Z,9.14
2018-01-05T04:43:01.420Z,9.16
2018-01-05T04:44:00.550Z,9.16
2018-01-05T04:45:00.816Z,9.17
2018-01-05T04:46:01.250Z,9.14
2018-01-05T04:47:00.675Z,9.16
2018-01-05T04:48:00.953Z,9.13
2018-01-05T04:49:01.445Z,9.11
2018-01-05T04:50:00.913Z,9.14
2018-01-05T04:51:00.472Z,9.14
2018-01-05T04:52:00.620Z,9.16
2018-01-05T04:53:01.154Z,9.11
2018-01-05T04:54:01.468Z,9.16
2018-01-05T04:55:00.795Z,9.13
2018-01-05T04:56:02.228Z,9.16
2018-01-05T04:57:02.697Z,9.13
2018-01-05T04:58:01.146Z,9.16
2018-01-05T04:59:01.418Z,9.16
2018-01-05T05:00:00.615Z,9.13
2018-01-05T05:01:00.860Z,9.16
2018-01-05T05:02:01.239Z,9.14
2018-01-05T05:03:01.434Z,9.16
2018-01-05T05:04:00.700Z,9.14
2018-01-05T05:05:01.228Z,9.14
2018-01-05T05:06:00.496Z,9.14
2018-01-05T05:07:00.882Z,9.16
2018-01-05T05:08:00.201Z,9.17
2018-01-05T05:09:00.281Z,9.16
2018-01-05T05:10:00.342Z,9.17
2018-01-05T05:11:00.293Z,9.16
2018-01-05T05:12:00.230Z,9.2
2018-01-05T05:13:00.593Z,9.19
2018-01-05T05:14:00.812Z,9.19
2018-01-05T05:15:02.058Z,9.17
2018-01-05T05:16:00.302Z,9.2
2018-01-05T05:17:00.412Z,9.19
2018-01-05T05:18:00.746Z,9.2
2018-01-05T05:19:00.030Z,9.21
2018-01-05T05:20:00.234Z,9.21
2018-01-05T05:21:00.587Z,9.23
2018-01-05T05:22:00.911Z,9.24
2018-01-05T05:23:00.435Z,9.26
2018-01-05T05:24:00.645Z,9.29
2018-01-05T05:25:00.784Z,9.29
2018-01-05T05:25:59.944Z,9.27
2018-01-05T05:27:00.412Z,9.26
2018-01-05T05:28:00.816Z,9.24
2018-01-05T05:29:00.204Z,9.26
2018-01-05T05:30:00.548Z,9.24
2018-01-05T05:31:00.852Z,9.27
2018-01-05T05:32:00.152Z,9.27
2018-01-05T05:33:00.463Z,9.23
2018-01-05T05:34:01.011Z,9.24
2018-01-05T05:35:00.178Z,9.26
2018-01-05T05:36:00.486Z,9.24
2018-01-05T05:37:00.542Z,9.24
2018-01-05T05:38:00.631Z,9.26
2018-01-05T05:39:00.767Z,9.23
2018-01-05T05:40:01.036Z,9.24
2018-01-05T05:41:01.454Z,9.26
2018-01-05T05:42:00.723Z,9.2
2018-01-05T05:43:00.996Z,9.23
2018-01-05T05:44:01.261Z,9.24
2018-01-05T05:45:00.524Z,9.21
2018-01-05T05:46:00.556Z,9.23
2018-01-05T05:47:00.637Z,9.19
2018-01-05T05:48:00.858Z,9.19
2018-01-05T05:49:01.184Z,9.17
2018-01-05T05:50:01.746Z,9.17
2018-01-05T05:51:01.110Z,9.2
2018-01-05T05:52:01.281Z,9.16
2018-01-05T05:53:00.413Z,9.2
2018-01-05T05:54:00.561Z,9.17
2018-01-05T05:55:00.692Z,9.2
2018-01-05T05:56:01.188Z,9.2
2018-01-05T05:57:00.438Z,9.2
2018-01-05T05:58:00.586Z,9.2
2018-01-05T05:59:01.054Z,9.21
2018-01-05T06:00:01.318Z,9.17
2018-01-05T06:01:01.443Z,9.17
2018-01-05T06:02:00.808Z,9.16
2018-01-05T06:03:01.201Z,9.16
2018-01-05T06:04:00.453Z,9.16
2018-01-05T06:05:00.639Z,9.14
2018-01-05T06:06:00.935Z,9.2
2018-01-05T06:07:01.263Z,9.17
2018-01-05T06:08:01.528Z,9.16
2018-01-05T06:09:01.955Z,9.14
2018-01-05T06:10:01.284Z,9.13
2018-01-05T06:11:01.422Z,9.13
2018-01-05T06:12:01.619Z,9.14
2018-01-05T06:13:01.881Z,9.13
2018-01-05T06:14:01.178Z,9.13
2018-01-05T06:15:01.437Z,9.16
2018-01-05T06:16:01.592Z,9.13
2018-01-05T06:17:01.874Z,9.16
2018-01-05T06:18:01.375Z,9.11
2018-01-05T06:19:01.733Z,9.19
2018-01-05T06:20:01.061Z,9.21
2018-01-05T06:21:01.336Z,9.21
2018-01-05T06:22:01.648Z,9.21
2018-01-05T06:23:01.825Z,9.2
2018-01-05T06:24:00.931Z,9.21
2018-01-05T06:25:01.210Z,9.2
2018-01-05T06:26:01.526Z,9.2
2018-01-05T06:27:01.826Z,9.19
2018-01-05T06:28:01.236Z,9.2
2018-01-05T06:29:01.990Z,9.21
2018-01-05T06:30:01.423Z,9.23
2018-01-05T06:32:03.266Z,9.2
2018-01-05T06:33:01.778Z,9.2
2018-01-05T06:34:01.153Z,9.17
2018-01-05T06:35:01.557Z,9.19
2018-01-05T06:36:01.993Z,9.17
2018-01-05T06:37:00.898Z,9.19
2018-01-05T06:38:00.159Z,9.17
2018-01-05T06:39:00.392Z,9.17
2018-01-05T06:40:00.858Z,9.17
2018-01-05T06:41:00.042Z,9.17
2018-01-05T06:42:00.149Z,9.17
2018-01-05T06:43:00.424Z,9.17
2018-01-05T06:44:00.660Z,9.16
2018-01-05T06:45:01.008Z,9.16
2018-01-05T06:46:00.326Z,9.13
2018-01-05T06:47:00.466Z,9.14
2018-01-05T06:48:00.767Z,9.16
2018-01-05T06:48:59.993Z,9.16
2018-01-05T06:50:00.319Z,9.13
2018-01-05T06:51:00.887Z,9.13
2018-01-05T06:52:00.208Z,9.16
2018-01-05T06:53:00.566Z,9.16
2018-01-05T06:54:00.901Z,9.17
2018-01-05T06:55:00.393Z,9.16
2018-01-05T06:56:00.653Z,9.17
2018-01-05T06:57:00.897Z,9.17
2018-01-05T06:58:00.220Z,9.17
2018-01-05T06:59:00.573Z,9.2
2018-01-05T07:00:01.046Z,9.2
2018-01-05T07:01:00.650Z,9.24
2018-01-05T07:02:01.957Z,9.26
2018-01-05T07:03:00.236Z,9.26
2018-01-05T07:04:00.737Z,9.26
2018-01-05T07:04:59.950Z,9.23
2018-01-05T07:06:00.429Z,9.2
2018-01-05T07:07:00.782Z,9.23
2018-01-05T07:08:01.309Z,9.24
2018-01-05T07:09:02.290Z,9.23
2018-01-05T07:10:01.627Z,9.21
2018-01-05T07:11:01.180Z,9.24
2018-01-05T07:12:02.490Z,9.23
2018-01-05T07:13:00.828Z,9.21
2018-01-05T07:14:01.027Z,9.23
2018-01-05T07:15:01.408Z,9.21
2018-01-05T07:16:01.837Z,9.24
2018-01-05T07:17:01.274Z,9.24
2018-01-05T07:18:01.771Z,9.27
2018-01-05T07:19:01.280Z,9.26
2018-01-05T07:20:01.758Z,9.23
2018-01-05T07:21:01.165Z,9.27
2018-01-05T07:22:02.152Z,9.26
2018-01-05T07:23:01.839Z,9.26
2018-01-05T07:24:01.268Z,9.26
2018-01-05T07:25:01.718Z,9.24
2018-01-05T07:26:01.023Z,9.24
2018-01-05T07:27:01.456Z,9.26
2018-01-05T07:28:01.785Z,9.21
2018-01-05T07:29:01.114Z,9.26
2018-01-05T07:30:01.596Z,9.27
2018-01-05T07:31:00.836Z,9.26
2018-01-05T07:32:01.165Z,9.3
2018-01-05T07:33:01.469Z,9.33
2018-01-05T07:34:01.637Z,9.34
2018-01-05T07:35:01.025Z,9.35
2018-01-05T07:36:03.633Z,9.35
2018-01-05T07:37:00.950Z,9.37
2018-01-05T07:38:01.200Z,9.37
2018-01-05T07:39:01.595Z,9.38
2018-01-05T07:40:02.158Z,9.37
2018-01-05T07:41:01.632Z,9.37
2018-01-05T07:42:01.738Z,9.37
2018-01-05T07:43:01.939Z,9.37
2018-01-05T07:44:01.125Z,9.37
2018-01-05T07:45:01.722Z,9.41
2018-01-05T07:46:01.203Z,9.4
2018-01-05T07:47:02.030Z,9.44
2018-01-05T07:48:01.299Z,9.42
2018-01-05T07:49:01.326Z,9.41
2018-01-05T07:50:01.586Z,9.41
2018-01-05T07:51:01.946Z,9.44
2018-01-05T07:52:01.350Z,9.45
2018-01-05T07:53:01.715Z,9.45
2018-01-05T07:59:05.480Z,9.55
2018-01-05T08:00:01.872Z,9.58
2018-01-05T08:01:01.235Z,9.59
2018-01-05T08:02:01.405Z,9.58
2018-01-05T08:03:01.710Z,9.57
2018-01-05T08:04:01.306Z,9.58
2018-01-05T08:05:01.858Z,9.58
2018-01-05T08:06:01.236Z,9.62
2018-01-05T08:07:01.555Z,9.65
2018-01-05T08:08:01.196Z,9.7
2018-01-05T08:09:00.750Z,9.7
2018-01-05T08:10:01.291Z,9.7
2018-01-05T08:11:00.924Z,9.72
2018-01-05T08:12:01.181Z,9.7
2018-01-05T08:13:01.575Z,9.7
2018-01-05T08:14:00.976Z,9.7
2018-01-05T08:15:01.277Z,9.75
2018-01-05T08:16:00.644Z,9.73
2018-01-05T08:17:01.180Z,9.73
2018-01-05T08:18:02.041Z,9.73
2018-01-05T08:19:01.237Z,9.82
2018-01-05T08:20:01.400Z,9.81
2018-01-05T08:21:00.764Z,9.81
2018-01-05T08:22:01.164Z,9.82
2018-01-05T08:23:01.516Z,9.82
2018-01-05T08:24:00.901Z,9.83
2018-01-05T08:25:01.317Z,9.82
2018-01-05T08:26:01.480Z,9.81
2018-01-05T08:27:01.049Z,9.81
2018-01-05T08:28:01.200Z,9.82
2018-01-05T08:29:01.488Z,9.83
2018-01-05T08:30:00.961Z,9.83
2018-01-05T08:31:01.315Z,9.83
2018-01-05T08:32:00.689Z,9.83
2018-01-05T08:33:00.894Z,9.88
2018-01-05T08:34:01.267Z,9.92
2018-01-05T08:35:00.772Z,9.92
2018-01-05T08:36:01.097Z,9.9
2018-01-05T08:37:01.401Z,9.89
2018-01-05T08:38:01.125Z,9.94
2018-01-05T08:39:01.420Z,9.92
2018-01-05T08:40:01.749Z,9.92
2018-01-05T08:41:01.252Z,9.9
2018-01-05T08:42:02.022Z,9.9
2018-01-05T08:43:01.555Z,9.97
2018-01-05T08:44:01.807Z,9.96
2018-01-05T08:45:00.984Z,9.96
2018-01-05T08:46:01.165Z,9.99
2018-01-05T08:47:01.433Z,9.97
2018-01-05T08:48:01.797Z,9.97
2018-01-05T08:49:01.212Z,9.97
2018-01-05T08:50:01.592Z,9.99
2018-01-05T08:51:01.890Z,10.02
2018-01-05T08:52:01.249Z,10.04
2018-01-05T08:53:01.655Z,10.02
2018-01-05T08:54:01.042Z,10.04
2018-01-05T08:55:01.247Z,10.04
2018-01-05T08:56:01.496Z,10.06
2018-01-05T08:57:01.866Z,10.04
2018-01-05T08:58:01.269Z,10.03
2018-01-05T08:59:01.657Z,10.03
2018-01-05T09:00:01.108Z,10.07
2018-01-05T09:01:01.429Z,10.03
2018-01-05T09:02:01.799Z,10.04
2018-01-05T09:03:01.061Z,10.06
2018-01-05T09:04:01.513Z,10.04
2018-01-05T09:05:02.093Z,10.04
2018-01-05T09:06:01.502Z,10.09
2018-01-05T09:07:02.061Z,10.06
2018-01-05T09:08:01.644Z,10.07
2018-01-05T09:09:01.035Z,10.06
2018-01-05T09:10:01.612Z,10.09
2018-01-05T09:11:01.261Z,10.07
2018-01-05T09:12:00.588Z,10.09
2018-01-05T09:13:00.711Z,10.13
2018-01-05T09:14:00.861Z,10.17
2018-01-05T09:15:01.424Z,10.19
2018-01-05T09:16:00.778Z,10.2
2018-01-05T09:17:01.047Z,10.27
2018-01-05T09:18:01.581Z,10.24
2018-01-05T09:19:00.784Z,10.28
2018-01-05T09:20:01.046Z,10.28
2018-01-05T09:21:01.633Z,10.28
2018-01-05T09:22:01.104Z,10.24
2018-01-05T09:23:01.475Z,10.27
2018-01-05T09:24:00.708Z,10.27
2018-01-05T09:25:00.970Z,10.3
2018-01-05T09:26:01.209Z,10.31
2018-01-05T09:27:01.596Z,10.32
2018-01-05T09:28:00.991Z,10.34
2018-01-05T09:29:01.394Z,10.35
2018-01-05T09:30:00.696Z,10.35
2018-01-05T09:31:01.258Z,10.32
2018-01-05T09:32:00.697Z,10.37
2018-01-05T09:33:01.312Z,10.39
2018-01-05T09:34:01.582Z,10.39
2018-01-05T09:35:00.928Z,10.42
2018-01-05T09:36:01.146Z,10.41
2018-01-05T09:37:01.343Z,10.45
2018-01-05T09:38:00.840Z,10.44
2018-01-05T09:39:01.477Z,10.47
2018-01-05T09:40:00.944Z,10.48
2018-01-05T09:41:01.120Z,10.51
2018-01-05T09:42:00.381Z,10.51
2018-01-05T09:43:00.727Z,10.55
2018-01-05T09:44:00.176Z,10.56
2018-01-05T09:45:00.626Z,10.56
2018-01-05T09:46:01.157Z,10.55
2018-01-05T09:47:00.413Z,10.59
2018-01-05T09:48:00.749Z,10.61
2018-01-05T09:49:01.040Z,10.61
2018-01-05T09:50:00.564Z,10.64
2018-01-05T09:51:00.740Z,10.66
2018-01-05T09:52:00.807Z,10.68
2018-01-05T09:53:00.918Z,10.78
2018-01-05T09:54:01.201Z,10.79
2018-01-05T09:55:00.811Z,10.78
2018-01-05T09:56:01.149Z,10.82
2018-01-05T09:57:00.214Z,10.78
2018-01-05T09:58:00.539Z,10.82
2018-01-05T09:59:01.657Z,10.83
2018-01-05T10:00:01.047Z,10.87
2018-01-05T10:01:01.306Z,10.92
2018-01-05T10:02:00.602Z,10.9
2018-01-05T10:03:00.873Z,10.92
2018-01-05T10:04:01.119Z,10.9
2018-01-05T10:05:01.191Z,10.93
2018-01-05T10:06:01.085Z,10.99
2018-01-05T10:07:00.370Z,11
2018-01-05T10:08:00.545Z,11.04
2018-01-05T10:09:00.712Z,11.07
2018-01-05T10:10:01.170Z,11.08
2018-01-05T10:11:01.728Z,11.14
2018-01-05T10:12:01.996Z,11.12
2018-01-05T10:13:01.328Z,11.08
2018-01-05T10:14:01.623Z,11.08
2018-01-05T10:15:01.828Z,11.11
2018-01-05T10:16:00.899Z,11.11
2018-01-05T10:17:01.143Z,11.17
2018-01-05T10:18:01.482Z,11.15
2018-01-05T10:19:01.815Z,11.15
2018-01-05T10:20:01.165Z,11.2
2018-01-05T10:21:01.399Z,11.21
2018-01-05T10:22:01.598Z,11.28
2018-01-05T10:23:01.895Z,11.25
2018-01-05T10:24:01.133Z,11.24
2018-01-05T10:25:05.044Z,11.28
2018-01-05T10:26:01.464Z,11.3
2018-01-05T10:27:02.175Z,11.34
2018-01-05T10:28:01.757Z,11.32
2018-01-05T10:29:01.033Z,11.35
2018-01-05T10:30:01.444Z,11.31
2018-01-05T10:31:01.964Z,11.37
2018-01-05T10:32:01.554Z,11.38
2018-01-05T10:33:01.991Z,11.39
2018-01-05T10:34:01.273Z,11.37
2018-01-05T10:35:01.483Z,11.37
2018-01-05T10:36:01.904Z,11.35
2018-01-05T10:37:01.412Z,11.35
2018-01-05T10:38:01.994Z,11.35
2018-01-05T10:39:01.525Z,11.32
2018-01-05T10:40:01.974Z,11.35
2018-01-05T10:41:01.453Z,11.35
2018-01-05T10:42:01.840Z,11.38
2018-01-05T10:43:01.097Z,11.39
2018-01-05T10:44:01.604Z,11.39
2018-01-05T10:45:01.237Z,11.42
2018-01-05T10:46:01.672Z,11.39
2018-01-05T10:47:00.941Z,11.41
2018-01-05T10:48:01.269Z,11.42
2018-01-05T10:49:01.465Z,11.44
2018-01-05T10:50:01.097Z,11.45
2018-01-05T10:51:01.500Z,11.44
2018-01-05T10:52:01.059Z,11.44
2018-01-05T10:53:01.420Z,11.47
2018-01-05T10:54:01.803Z,11.48
2018-01-05T10:55:01.261Z,11.51
2018-01-05T10:56:01.647Z,11.49
2018-01-05T10:57:00.805Z,11.48
2018-01-05T10:58:01.362Z,11.51
2018-01-05T10:59:07.353Z,11.55
2018-01-05T11:00:01.086Z,11.52
2018-01-05T11:01:01.410Z,11.54
2018-01-05T11:02:01.641Z,11.49
2018-01-05T11:03:01.049Z,11.54
2018-01-05T11:04:01.414Z,11.54
2018-01-05T11:05:01.762Z,11.54
2018-01-05T11:06:01.205Z,11.58
2018-01-05T11:07:01.600Z,11.55
2018-01-05T11:08:00.984Z,11.55
2018-01-05T11:09:01.289Z,11.55
2018-01-05T11:10:01.797Z,11.56
2018-01-05T11:11:01.509Z,11.55
2018-01-05T11:12:01.020Z,11.55
2018-01-05T11:13:00.270Z,11.54
2018-01-05T11:14:00.497Z,11.55
2018-01-05T11:15:00.854Z,11.55
2018-01-05T11:16:01.561Z,11.54
2018-01-05T11:17:01.126Z,11.54
2018-01-05T11:18:00.459Z,11.51
2018-01-05T11:19:00.746Z,11.49
2018-01-05T11:20:01.096Z,11.51
2018-01-05T11:21:00.375Z,11.47
2018-01-05T11:22:01.798Z,11.48
2018-01-05T11:23:01.588Z,11.48
2018-01-05T11:24:00.983Z,11.47
2018-01-05T11:25:03.342Z,11.45
2018-01-05T11:26:08.311Z,11.45
2018-01-05T11:27:00.707Z,11.47
2018-01-05T11:28:01.384Z,11.48
2018-01-05T11:29:00.630Z,11.49
2018-01-05T11:30:01.151Z,11.49
2018-01-05T11:31:00.732Z,11.48
2018-01-05T11:32:00.996Z,11.48
2018-01-05T11:33:00.597Z,11.47
2018-01-05T11:34:01.037Z,11.45
2018-01-05T11:35:00.462Z,11.45
2018-01-05T11:36:00.672Z,11.42
2018-01-05T11:37:00.945Z,11.45
2018-01-05T11:38:02.167Z,11.47
2018-01-05T11:39:00.420Z,11.44
2018-01-05T11:40:00.699Z,11.49
2018-01-05T11:41:01.154Z,11.47
2018-01-05T11:42:00.469Z,11.47
2018-01-05T11:43:00.928Z,11.48
2018-01-05T11:44:01.352Z,11.48
2018-01-05T11:45:00.872Z,11.48
2018-01-05T11:46:01.226Z,11.48
2018-01-05T11:47:01.521Z,11.47
2018-01-05T11:48:00.995Z,11.48
2018-01-05T11:49:01.442Z,11.45
2018-01-05T11:50:00.753Z,11.45
2018-01-05T11:51:01.247Z,11.47
2018-01-05T11:52:00.746Z,11.47
2018-01-05T11:53:01.264Z,11.45
2018-01-05T11:54:00.964Z,11.47
2018-01-05T11:55:04.120Z,11.44
2018-01-05T11:56:01.532Z,11.38
2018-01-05T11:57:01.028Z,11.41
2018-01-05T11:58:01.465Z,11.38
2018-01-05T11:59:00.846Z,11.38
2018-01-05T12:00:01.399Z,11.37
2018-01-05T12:01:00.984Z,11.34
2018-01-05T12:02:01.567Z,11.34
2018-01-05T12:03:00.760Z,11.31
2018-01-05T12:04:01.518Z,11.32
2018-01-05T12:05:01.162Z,11.3
2018-01-05T12:06:01.646Z,11.28
2018-01-05T12:07:01.221Z,11.31
2018-01-05T12:08:00.701Z,11.28
2018-01-05T12:09:01.021Z,11.28
2018-01-05T12:10:01.364Z,11.28
2018-01-05T12:11:00.742Z,11.25
2018-01-05T12:12:01.226Z,11.25
2018-01-05T12:13:00.568Z,11.25
2018-01-05T12:14:01.038Z,11.25
2018-01-05T12:15:00.838Z,11.21
2018-01-05T12:16:00.522Z,11.21
2018-01-05T12:17:00.738Z,11.22
2018-01-05T12:18:01.176Z,11.18
2018-01-05T12:19:00.610Z,11.18
2018-01-05T12:20:01.194Z,11.21
2018-01-05T12:21:00.431Z,11.15
2018-01-05T12:22:00.918Z,11.2
2018-01-05T12:23:00.414Z,11.14
2018-01-05T12:24:00.927Z,11.14
2018-01-05T12:25:01.715Z,11.12
2018-01-05T12:26:02.904Z,11.12
2018-01-05T12:27:00.542Z,11.15
2018-01-05T12:28:00.485Z,11.14
2018-01-05T12:29:00.777Z,11.14
2018-01-05T12:30:01.343Z,11.14
2018-01-05T12:31:01.976Z,11.11
2018-01-05T12:32:00.290Z,11.11
2018-01-05T12:33:02.678Z,11.11
2018-01-05T12:34:01.049Z,11.11
2018-01-05T12:35:00.451Z,11.08
2018-01-05T12:36:00.755Z,11.06
2018-01-05T12:37:01.083Z,11.08
2018-01-05T12:38:00.529Z,11.08
2018-01-05T12:39:00.851Z,11.08
2018-01-05T12:40:00.361Z,11.07
2018-01-05T12:41:00.929Z,11.07
2018-01-05T12:42:00.352Z,11.06
2018-01-05T12:43:00.879Z,11.06
2018-01-05T12:44:01.612Z,11.06
2018-01-05T12:45:01.507Z,11.04
2018-01-05T12:46:00.826Z,11.04
2018-01-05T12:47:01.158Z,11.04
2018-01-05T12:48:01.602Z,11.04
2018-01-05T12:49:01.007Z,11.06
2018-01-05T12:50:01.175Z,11.07
2018-01-05T12:51:01.370Z,11.04
2018-01-05T12:52:02.453Z,11.04
2018-01-05T12:53:00.838Z,11.04
2018-01-05T12:54:01.268Z,11.04
2018-01-05T12:55:01.808Z,11.06
2018-01-05T12:56:01.054Z,11.06
2018-01-05T12:57:01.282Z,11.01
2018-01-05T12:58:01.563Z,11.01
2018-01-05T12:59:01.039Z,11.01
2018-01-05T13:00:01.664Z,11.03
2018-01-05T13:01:01.031Z,11.06
2018-01-05T13:02:01.439Z,11.03
2018-01-05T13:03:00.887Z,11
2018-01-05T13:04:01.271Z,10.94
2018-01-05T13:05:01.683Z,10.99
2018-01-05T13:06:00.977Z,10.96
2018-01-05T13:07:01.246Z,10.93
2018-01-05T13:08:01.562Z,10.93
2018-01-05T13:09:01.017Z,10.89
2018-01-05T13:10:02.234Z,10.89
2018-01-05T13:11:00.671Z,10.89
2018-01-05T13:12:00.870Z,10.86
2018-01-05T13:13:01.190Z,10.86
2018-01-05T13:14:00.503Z,10.86
2018-01-05T13:15:00.882Z,10.86
2018-01-05T13:16:01.196Z,10.87
2018-01-05T13:17:00.555Z,10.84
2018-01-05T13:18:00.903Z,10.8
2018-01-05T13:19:00.415Z,10.83
2018-01-05T13:20:00.768Z,10.78
2018-01-05T13:21:01.103Z,10.75
2018-01-05T13:22:00.794Z,10.79